createdAt,value
2022-12-15T00:01:19.891Z,95.06
2022-12-15T00:04:41.725Z,95.22
2022-12-15T00:08:03.373Z,95.22
2022-12-15T00:11:25.202Z,95.32
2022-12-15T00:14:46.638Z,95.36
2022-12-15T00:18:08.512Z,95.57
2022-12-15T00:21:30.075Z,95.96
2022-12-15T00:24:51.774Z,96.06
2022-12-15T00:28:15.725Z,96.09
2022-12-15T00:31:37.757Z,96.28
2022-12-15T00:34:59.435Z,96.11
2022-12-15T00:38:28.917Z,95.64
2022-12-15T00:41:31.965Z,95.91
2022-12-15T00:44:35.485Z,96.15
2022-12-15T00:47:38.710Z,96.34
2022-12-15T00:50:53.741Z,96.35
2022-12-15T00:54:18.178Z,96.23
2022-12-15T00:57:40.586Z,96.09
2022-12-15T01:01:02.163Z,95.85
2022-12-15T01:04:24.423Z,96.04
2022-12-15T01:07:49.803Z,96.35
2022-12-15T01:11:13.907Z,96.38
2022-12-15T01:14:35.493Z,96.29
2022-12-15T01:17:57.794Z,96.00
2022-12-15T01:21:05.507Z,95.83
2022-12-15T01:24:08.956Z,95.96
2022-12-15T01:27:13.198Z,95.29
2022-12-15T01:30:20.292Z,95.56
2022-12-15T01:33:24.486Z,95.75
2022-12-15T01:36:27.849Z,96.10
2022-12-15T01:39:51.604Z,95.87
2022-12-15T01:42:55.322Z,95.88
2022-12-15T01:46:14.400Z,95.99
2022-12-15T01:49:23.507Z,96.44
2022-12-15T01:52:26.978Z,97.00
2022-12-15T01:55:32.494Z,97.42
2022-12-15T01:58:38.865Z,97.78
2022-12-15T02:01:42.617Z,98.15
2022-12-15T02:04:51.700Z,97.93
2022-12-15T02:07:54.961Z,97.76
2022-12-15T02:11:11.235Z,98.16
2022-12-15T02:14:25.964Z,98.80
2022-12-15T02:17:41.014Z,99.20
2022-12-15T02:21:07.436Z,99.27
2022-12-15T02:24:34.685Z,99.38
2022-12-15T02:28:09.637Z,99.54
2022-12-15T02:31:49.936Z,99.78
2022-12-15T02:35:03.183Z,100.00
2022-12-15T02:38:08.898Z,100.00
2022-12-15T02:41:38.259Z,100.00
2022-12-15T02:44:56.396Z,100.00
2022-12-15T02:48:11.998Z,100.00
2022-12-15T02:51:44.884Z,100.00
2022-12-15T02:55:02.729Z,100.00
2022-12-15T02:58:44.439Z,100.00
2022-12-15T03:01:58.131Z,100.00
2022-12-15T03:05:02.073Z,100.00
2022-12-15T03:08:05.325Z,100.00
2022-12-15T03:11:08.789Z,100.00
2022-12-15T03:14:11.858Z,100.00
2022-12-15T03:17:15.346Z,100.00
2022-12-15T03:20:18.517Z,100.00
2022-12-15T03:23:23.198Z,100.00
2022-12-15T03:26:27.939Z,100.00
2022-12-15T03:29:31.229Z,100.00
2022-12-15T03:32:34.409Z,100.00
2022-12-15T03:35:37.810Z,100.00
2022-12-15T03:38:42.460Z,100.00
2022-12-15T03:41:45.860Z,100.00
2022-12-15T03:44:49.721Z,100.00
2022-12-15T03:47:54.231Z,100.00
2022-12-15T03:50:57.318Z,100.00
2022-12-15T03:54:01.247Z,100.00
2022-12-15T03:57:04.352Z,100.00
2022-12-15T04:00:08.225Z,100.00
2022-12-15T04:03:15.815Z,100.00
2022-12-15T04:06:19.443Z,100.00
2022-12-15T04:09:22.761Z,100.00
2022-12-15T04:12:26.053Z,100.00
2022-12-15T04:15:29.454Z,100.00
2022-12-15T04:18:32.892Z,100.00
2022-12-15T04:21:36.127Z,100.00
2022-12-15T04:24:58.223Z,100.00
2022-12-15T04:28:19.933Z,100.00
2022-12-15T04:32:01.549Z,100.00
2022-12-15T04:35:23.912Z,100.00
2022-12-15T04:38:50.395Z,100.00
2022-12-15T04:42:14.317Z,100.00
2022-12-15T04:45:39.384Z,100.00
2022-12-15T04:49:01.255Z,100.00
2022-12-15T04:52:24.118Z,100.00
2022-12-15T04:55:46.823Z,100.00
2022-12-15T04:59:09.009Z,100.00
2022-12-15T05:02:33.568Z,100.00
2022-12-15T05:05:55.866Z,100.00
2022-12-15T05:09:18.015Z,100.00
2022-12-15T05:12:40.049Z,100.00
2022-12-15T05:16:01.693Z,100.00
2022-12-15T05:19:23.980Z,100.00
2022-12-15T05:22:46.066Z,100.00
2022-12-15T05:26:08.239Z,100.00
2022-12-15T05:29:30.135Z,100.00
2022-12-15T05:32:33.632Z,100.00
2022-12-15T05:35:36.697Z,100.00
2022-12-15T05:38:40.278Z,100.00
2022-12-15T05:41:43.492Z,100.00
2022-12-15T05:44:47.278Z,100.00
2022-12-15T05:47:53.700Z,100.00
2022-12-15T05:50:57.030Z,100.00
2022-12-15T05:54:00.323Z,100.00
2022-12-15T05:57:03.843Z,100.00
2022-12-15T06:00:07.726Z,100.00
2022-12-15T06:03:14.650Z,100.00
2022-12-15T06:06:18.131Z,100.00
2022-12-15T06:09:23.430Z,100.00
2022-12-15T06:12:26.800Z,100.00
2022-12-15T06:15:29.888Z,100.00
2022-12-15T06:18:38.655Z,100.00
2022-12-15T06:21:41.856Z,100.00
2022-12-15T06:24:45.315Z,100.00
2022-12-15T06:27:51.526Z,100.00
2022-12-15T06:31:02.442Z,100.00
2022-12-15T06:34:08.425Z,100.00
2022-12-15T06:37:12.847Z,100.00
2022-12-15T06:40:16.077Z,100.00
2022-12-15T06:43:19.441Z,100.00
2022-12-15T06:46:23.914Z,100.00
2022-12-15T06:49:27.549Z,100.00
2022-12-15T06:52:31.109Z,100.00
2022-12-15T06:55:34.707Z,100.00
2022-12-15T06:58:37.792Z,100.00
2022-12-15T07:01:42.196Z,100.00
2022-12-15T07:04:45.637Z,100.00
2022-12-15T07:07:49.106Z,100.00
2022-12-15T07:10:52.464Z,100.00
2022-12-15T07:13:55.946Z,100.00
2022-12-15T07:16:59.070Z,100.00
2022-12-15T07:20:03.120Z,100.00
2022-12-15T07:23:09.717Z,100.00
2022-12-15T07:26:13.195Z,100.00
2022-12-15T07:29:22.680Z,100.00
2022-12-15T07:32:26.780Z,100.00
2022-12-15T07:35:30.155Z,100.00
2022-12-15T07:38:34.078Z,100.00
2022-12-15T07:41:38.748Z,100.00
2022-12-15T07:44:42.501Z,100.00
2022-12-15T07:47:50.338Z,100.00
2022-12-15T07:51:02.731Z,100.00
2022-12-15T07:54:14.244Z,100.00
2022-12-15T07:57:17.930Z,100.00
2022-12-15T08:00:21.230Z,100.00
2022-12-15T08:03:24.678Z,100.00
2022-12-15T08:06:27.814Z,100.00
2022-12-15T08:09:34.217Z,100.00
2022-12-15T08:12:37.489Z,100.00
2022-12-15T08:15:41.743Z,100.00
2022-12-15T08:18:44.764Z,100.00
2022-12-15T08:21:48.667Z,100.00
2022-12-15T08:24:53.061Z,100.00
2022-12-15T08:27:58.742Z,100.00
2022-12-15T08:31:09.910Z,100.00
2022-12-15T08:34:13.358Z,100.00
2022-12-15T08:37:16.540Z,100.00
2022-12-15T08:40:21.227Z,99.91
2022-12-15T08:43:24.575Z,99.44
2022-12-15T08:46:33.892Z,98.46
2022-12-15T08:49:38.189Z,98.25
2022-12-15T08:53:00.756Z,98.44
2022-12-15T08:56:09.400Z,98.51
2022-12-15T08:59:13.341Z,98.24
2022-12-15T09:02:16.625Z,98.38
2022-12-15T09:05:20.366Z,98.26
2022-12-15T09:08:24.535Z,98.23
2022-12-15T09:11:29.937Z,97.66
2022-12-15T09:14:33.492Z,97.28
2022-12-15T09:17:36.785Z,97.40
2022-12-15T09:20:40.707Z,97.71
2022-12-15T09:23:49.152Z,97.98
2022-12-15T09:26:52.300Z,97.56
2022-12-15T09:29:55.731Z,97.59
2022-12-15T09:32:58.922Z,97.58
2022-12-15T09:36:04.081Z,97.38
2022-12-15T09:39:09.345Z,97.07
2022-12-15T09:42:32.918Z,96.35
2022-12-15T09:45:46.713Z,95.83
2022-12-15T09:48:53.259Z,95.11
2022-12-15T09:52:10.990Z,94.29
2022-12-15T09:55:35.382Z,94.75
2022-12-15T09:58:51.706Z,94.30
2022-12-15T10:02:10.576Z,94.68
2022-12-15T10:09:21.547Z,95.58
2022-12-15T10:12:33.110Z,94.96
2022-12-15T10:15:45.633Z,93.79
2022-12-15T10:19:02.236Z,93.06
2022-12-15T10:22:05.563Z,93.51
2022-12-15T10:25:25.330Z,93.51
2022-12-15T10:29:11.678Z,92.86
2022-12-15T10:32:51.918Z,92.49
2022-12-15T10:35:56.209Z,92.52
2022-12-15T10:38:59.576Z,92.79
2022-12-15T10:42:18.278Z,92.36
2022-12-15T10:45:39.235Z,92.03
2022-12-15T10:48:48.848Z,92.24
2022-12-15T10:52:03.189Z,92.47
2022-12-15T10:55:49.806Z,93.24
2022-12-15T10:58:56.917Z,93.38
2022-12-15T11:02:25.212Z,93.58
2022-12-15T11:05:29.275Z,93.60
2022-12-15T11:08:33.629Z,93.76
2022-12-15T11:12:06.344Z,93.62
2022-12-15T11:15:23.951Z,94.32
2022-12-15T11:18:33.350Z,93.77
2022-12-15T11:21:44.700Z,93.76
2022-12-15T11:24:57.280Z,93.16
2022-12-15T11:28:06.982Z,93.18
2022-12-15T11:31:20.927Z,92.42
2022-12-15T11:34:28.273Z,92.18
2022-12-15T11:37:44.561Z,91.94
2022-12-15T11:40:47.826Z,92.62
2022-12-15T11:44:04.363Z,92.63
2022-12-15T11:47:18.404Z,93.05
2022-12-15T11:50:24.775Z,93.00
2022-12-15T11:53:50.179Z,93.27
2022-12-15T11:57:03.320Z,93.29
2022-12-15T12:00:19.795Z,93.59
2022-12-15T12:03:37.102Z,93.67
2022-12-15T12:06:53.064Z,93.27
2022-12-15T12:10:38.943Z,93.53
2022-12-15T12:14:11.848Z,93.73
2022-12-15T12:17:34.307Z,93.91
2022-12-15T12:20:52.114Z,94.24
2022-12-15T12:24:06.213Z,94.22
2022-12-15T12:27:29.434Z,93.96
2022-12-15T12:30:42.792Z,93.81
2022-12-15T12:33:52.794Z,93.43
2022-12-15T12:37:05.955Z,93.43
2022-12-15T12:40:38.233Z,93.47
2022-12-15T12:43:50.141Z,93.68
2022-12-15T12:46:57.545Z,93.03
2022-12-15T12:50:23.625Z,93.26
2022-12-15T12:53:34.221Z,93.55
2022-12-15T12:56:40.892Z,93.17
2022-12-15T12:59:51.918Z,93.25
2022-12-15T13:02:57.476Z,93.71
2022-12-15T13:06:26.551Z,93.93
2022-12-15T13:10:13.026Z,94.32
2022-12-15T13:13:19.281Z,94.25
2022-12-15T13:16:26.948Z,93.97
2022-12-15T13:19:58.447Z,94.02
2022-12-15T13:23:23.521Z,94.25
2022-12-15T13:26:32.203Z,94.39
2022-12-15T13:30:17.464Z,94.76
2022-12-15T13:33:20.610Z,94.62
2022-12-15T13:36:42.364Z,94.96
2022-12-15T13:39:53.863Z,95.83
2022-12-15T13:43:05.034Z,96.02
2022-12-15T13:46:18.092Z,96.48
2022-12-15T13:49:29.232Z,97.07
2022-12-15T13:53:17.887Z,97.67
2022-12-15T13:56:24.794Z,97.74
2022-12-15T13:59:42.416Z,98.08
2022-12-15T14:02:46.541Z,98.65
2022-12-15T14:05:59.354Z,98.92
2022-12-15T14:09:03.613Z,99.46
2022-12-15T14:12:13.645Z,100.00
2022-12-15T14:15:19.580Z,100.00
2022-12-15T14:18:39.341Z,100.00
2022-12-15T14:21:54.298Z,100.00
2022-12-15T14:25:13.102Z,100.00
2022-12-15T14:28:46.900Z,100.00
2022-12-15T14:31:56.905Z,100.00
2022-12-15T14:35:00.216Z,100.00
2022-12-15T14:38:14.884Z,100.00
2022-12-15T14:41:29.186Z,100.00
2022-12-15T14:44:39.179Z,100.00
2022-12-15T14:48:13.576Z,100.00
2022-12-15T14:51:17.455Z,100.00
2022-12-15T14:54:39.458Z,100.00
2022-12-15T14:57:48.056Z,100.00
2022-12-15T15:00:53.747Z,100.00
2022-12-15T15:03:03.569Z,95.14
2022-12-15T15:04:01.099Z,100.00
2022-12-15T15:07:15.135Z,100.00
2022-12-15T15:10:29.139Z,100.00
2022-12-15T15:13:40.859Z,100.00
2022-12-15T15:16:44.717Z,100.00
2022-12-15T15:19:55.143Z,100.00
2022-12-15T15:23:19.761Z,100.00
2022-12-15T15:26:25.834Z,100.00
2022-12-15T15:29:41.297Z,100.00
2022-12-15T15:32:58.745Z,100.00
2022-12-15T15:36:04.298Z,100.00
2022-12-15T15:39:15.523Z,100.00
2022-12-15T15:42:19.288Z,100.00
2022-12-15T15:45:22.725Z,100.00
2022-12-15T15:48:31.509Z,100.00
2022-12-15T15:51:36.228Z,100.00
2022-12-15T15:54:39.917Z,100.00
2022-12-15T15:57:43.113Z,100.00
2022-12-15T16:00:46.810Z,100.00
2022-12-15T16:03:50.303Z,100.00
2022-12-15T16:06:54.416Z,100.00
2022-12-15T16:09:59.247Z,100.00
2022-12-15T16:13:02.498Z,100.00
2022-12-15T16:16:10.600Z,100.00
2022-12-15T16:19:13.850Z,100.00
2022-12-15T16:22:22.572Z,100.00
2022-12-15T16:25:50.775Z,100.00
2022-12-15T16:28:54.741Z,100.00
2022-12-15T16:31:58.306Z,100.00
2022-12-15T16:35:01.756Z,100.00
2022-12-15T16:38:28.835Z,100.00
2022-12-15T16:41:33.300Z,100.00
2022-12-15T16:44:36.721Z,100.00
2022-12-15T16:47:40.859Z,100.00
2022-12-15T16:50:50.257Z,100.00
2022-12-15T16:53:56.136Z,100.00
2022-12-15T16:57:00.416Z,100.00
2022-12-15T17:00:31.506Z,100.00
2022-12-15T17:03:34.789Z,100.00
2022-12-15T17:06:38.992Z,100.00
2022-12-15T17:09:42.277Z,100.00
2022-12-15T17:12:46.468Z,100.00
2022-12-15T17:15:49.642Z,100.00
2022-12-15T17:18:53.142Z,100.00
2022-12-15T17:21:56.420Z,100.00
2022-12-15T17:25:00.393Z,100.00
2022-12-15T17:28:06.696Z,100.00
2022-12-15T17:31:22.465Z,100.00
2022-12-15T17:34:34.906Z,100.00
2022-12-15T17:37:40.469Z,100.00
2022-12-15T17:40:49.209Z,100.00
2022-12-15T17:44:24.187Z,100.00
2022-12-15T17:47:18.988Z,100.00
2022-12-15T17:50:25.267Z,100.00
2022-12-15T17:53:33.175Z,100.00
2022-12-15T17:56:37.553Z,100.00
2022-12-15T17:59:41.450Z,100.00
2022-12-15T18:02:45.303Z,100.00
2022-12-15T18:05:52.185Z,100.00
2022-12-15T18:08:58.284Z,100.00
2022-12-15T18:12:16.237Z,100.00
2022-12-15T18:15:26.997Z,100.00
2022-12-15T18:18:31.127Z,100.00
2022-12-15T18:21:35.515Z,100.00
2022-12-15T18:24:40.589Z,100.00
2022-12-15T18:27:44.104Z,100.00
2022-12-15T18:30:49.259Z,100.00
2022-12-15T18:34:01.009Z,100.00
2022-12-15T18:37:25.129Z,100.00
2022-12-15T18:40:33.927Z,100.00
2022-12-15T18:43:39.432Z,100.00
2022-12-15T18:46:47.928Z,100.00
2022-12-15T18:49:52.323Z,100.00
2022-12-15T18:53:00.571Z,100.00
2022-12-15T18:56:07.476Z,100.00
2022-12-15T18:59:17.154Z,100.00
2022-12-15T19:02:21.607Z,100.00
2022-12-15T19:05:29.255Z,100.00
2022-12-15T19:08:36.368Z,100.00
2022-12-15T19:11:41.279Z,100.00
2022-12-15T19:14:50.840Z,100.00
2022-12-15T19:18:13.495Z,100.00
2022-12-15T19:21:39.312Z,100.00
2022-12-15T19:24:54.598Z,100.00
2022-12-15T19:28:02.779Z,100.00
2022-12-15T19:31:09.435Z,100.00
2022-12-15T19:34:14.401Z,100.00
2022-12-15T19:37:32.642Z,100.00
2022-12-15T19:40:38.167Z,100.00
2022-12-15T19:43:46.458Z,100.00
2022-12-15T19:46:51.551Z,100.00
2022-12-15T19:49:56.231Z,100.00
2022-12-15T19:53:02.495Z,100.00
2022-12-15T19:56:17.455Z,100.00
2022-12-15T19:59:27.348Z,100.00
2022-12-15T20:02:32.929Z,100.00
2022-12-15T20:05:40.090Z,100.00
2022-12-15T20:08:48.869Z,100.00
2022-12-15T20:11:56.087Z,100.00
2022-12-15T20:15:01.951Z,100.00
2022-12-15T20:18:06.363Z,100.00
2022-12-15T20:21:10.735Z,100.00
2022-12-15T20:24:19.501Z,100.00
2022-12-15T20:27:23.355Z,100.00
2022-12-15T20:30:32.916Z,100.00
2022-12-15T20:33:37.251Z,100.00
2022-12-15T20:36:41.356Z,100.00
2022-12-15T20:39:52.592Z,100.00
2022-12-15T20:43:01.043Z,100.00
2022-12-15T20:46:16.309Z,100.00
2022-12-15T20:49:22.334Z,100.00
2022-12-15T20:52:27.525Z,100.00
2022-12-15T20:55:34.591Z,100.00
2022-12-15T20:58:42.873Z,100.00
2022-12-15T21:01:47.432Z,100.00
2022-12-15T21:04:52.469Z,100.00
2022-12-15T21:07:58.789Z,100.00
2022-12-15T21:11:15.298Z,100.00
2022-12-15T21:14:21.470Z,100.00
2022-12-15T21:17:26.167Z,100.00
2022-12-15T21:20:29.805Z,100.00
2022-12-15T21:23:38.494Z,100.00
2022-12-15T21:26:45.201Z,100.00
2022-12-15T21:29:53.248Z,100.00
2022-12-15T21:32:56.720Z,100.00
2022-12-15T21:36:00.114Z,100.00
2022-12-15T21:39:06.831Z,100.00
2022-12-15T21:42:16.168Z,100.00
2022-12-15T21:45:22.248Z,100.00
2022-12-15T21:48:45.840Z,100.00
2022-12-15T21:51:55.311Z,100.00
2022-12-15T21:54:58.604Z,100.00
2022-12-15T21:58:03.085Z,100.00
2022-12-15T22:01:09.414Z,100.00
2022-12-15T22:04:21.746Z,100.00
2022-12-15T22:07:25.187Z,100.00
2022-12-15T22:10:28.754Z,100.00
2022-12-15T22:13:32.918Z,100.00
2022-12-15T22:16:36.665Z,100.00
2022-12-15T22:19:39.858Z,100.00
2022-12-15T22:22:44.809Z,100.00
2022-12-15T22:25:54.631Z,100.00
2022-12-15T22:29:03.432Z,100.00
2022-12-15T22:32:14.748Z,100.00
2022-12-15T22:35:23.317Z,100.00
2022-12-15T22:38:26.479Z,100.00
2022-12-15T22:41:29.981Z,100.00
2022-12-15T22:44:37.464Z,100.00
2022-12-15T22:47:41.384Z,100.00
2022-12-15T22:50:45.534Z,100.00
2022-12-15T22:53:49.036Z,100.00
2022-12-15T22:56:58.588Z,100.00
2022-12-15T23:00:07.979Z,100.00
2022-12-15T23:03:12.098Z,100.00
2022-12-15T23:06:17.200Z,100.00
2022-12-15T23:09:22.159Z,100.00
2022-12-15T23:12:25.560Z,100.00
2022-12-15T23:15:48.209Z,100.00
2022-12-15T23:18:55.730Z,100.00
2022-12-15T23:21:58.918Z,100.00
2022-12-15T23:25:07.511Z,100.00
2022-12-15T23:28:12.905Z,100.00
2022-12-15T23:31:19.365Z,100.00
2022-12-15T23:34:23.930Z,100.00
2022-12-15T23:37:27.367Z,100.00
2022-12-15T23:40:30.729Z,100.00
2022-12-15T23:43:35.041Z,100.00
2022-12-15T23:46:38.431Z,100.00
2022-12-15T23:49:42.202Z,100.00
2022-12-15T23:52:48.157Z,100.00
2022-12-15T23:55:54.534Z,100.00
2022-12-15T23:58:59.849Z,100.00
